Pagrindinis puslapis
METAR-TAF:

METAR-TAF

Oro uostai :

San Pedro Sula, Hondūras

platuma: 15-27N, ilguma: 087-56W, Aukštis: 31 m

Dabartinis oras

Ataskaita buvo paskelbta 1 valandą ir 1 minutes, ne 13:00 UTC
Vėjas 2 kt nuo kintamojo kryptimis
Temperatūra 27°C
Drėgmė 84%
Slėgis 1012 hPa
Matomumas 10 km arba daugiau
Su prošvaistėmis ne aukštis 1800 ft

METAR: MHLM 211300Z VRB02KT 9999 BKN018 27/24 Q1012 A2989 NOSIG

Laikas: 08:01 (14:01 UTC)

Prognozė

Ataskaita buvo paskelbta 3 valandos ir 1 minutes, ne 11:00 UTC
Prognozė galioja nuo 21 metu 12 UTC su 22 metu 12 UTC
Vėjas 2 kt nuo kintamojo kryptimis
Matomumas 10 km arba daugiau
Mažai debesys ne aukštis 2600 ft
Išsisklaidę debesys ne aukštis 8000 ft
Tapsmas
nuo 21 metu 18 UTC su 21 metu 20 UTC
Vėjas 16 kt iš Šiaurės/Šiaurės Rytų
Išsisklaidę debesys ne aukštis 3200 ft
Tapsmas
nuo 22 metu 02 UTC su 22 metu 04 UTC
Vėjas 3 kt nuo kintamojo kryptimis

TAF: MHLM 211100Z 2112/2212 VRB02KT 9999 FEW026 SCT080 TX36/2120Z TN25/2212Z BECMG 2118/2120 02016KT SCT032 BECMG 2202/2204 VRB03KT

Orai ataskaitas ir orų prognozės (METAR, TAF).

turimą stotys yra geltonos ir raudonos taškus žemėlapyje.

Perkelti pele per norėdami pamatyti stoties vardą.

Tada spustelėkite, norėdami matyti oro stebėjimo ir prognozės.

Norėdami pakeisti žemėlapį: spustelėkite ant žalios mygtukų su juodo kryžiaus žemyn,; žalią mygtuką su brūkšneliu, jei norite nutolinti; arba žalių rodyklių gretimoms žemėlapius.


METAR-TAF: